sensor_id;sensor_type;location;lat;lon;timestamp;P1;durP1;ratioP1;P2;durP2;ratioP2
21624;SDS011;10974;51.034;3.744;2023-02-15T04:18:45;65.53;;;39.37;;
21624;SDS011;10974;51.034;3.744;2023-02-15T04:21:30;57.13;;;38.47;;
21624;SDS011;10974;51.034;3.744;2023-02-15T04:24:14;55.37;;;37.87;;
21624;SDS011;10974;51.034;3.744;2023-02-15T04:27:00;63.10;;;38.70;;
21624;SDS011;10974;51.034;3.744;2023-02-15T04:29:27;64.50;;;39.53;;
21624;SDS011;10974;51.034;3.744;2023-02-15T04:31:54;60.23;;;37.47;;
21624;SDS011;10974;51.034;3.744;2023-02-15T04:34:20;57.83;;;38.23;;
21624;SDS011;10974;51.034;3.744;2023-02-15T04:36:46;62.50;;;38.00;;
21624;SDS011;10974;51.034;3.744;2023-02-15T04:39:13;59.13;;;37.23;;
21624;SDS011;10974;51.034;3.744;2023-02-15T04:41:39;58.13;;;36.67;;
21624;SDS011;10974;51.034;3.744;2023-02-15T04:44:05;58.10;;;36.50;;
21624;SDS011;10974;51.034;3.744;2023-02-15T04:46:31;55.37;;;36.17;;
21624;SDS011;10974;51.034;3.744;2023-02-15T04:48:57;57.63;;;38.27;;
21624;SDS011;10974;51.034;3.744;2023-02-15T04:51:23;55.47;;;36.23;;
21624;SDS011;10974;51.034;3.744;2023-02-15T04:53:50;57.57;;;36.67;;
21624;SDS011;10974;51.034;3.744;2023-02-15T04:56:17;64.30;;;39.30;;
21624;SDS011;10974;51.034;3.744;2023-02-15T04:58:43;59.30;;;38.27;;
21624;SDS011;10974;51.034;3.744;2023-02-15T05:01:10;59.50;;;37.37;;
21624;SDS011;10974;51.034;3.744;2023-02-15T05:03:36;58.70;;;36.17;;
21624;SDS011;10974;51.034;3.744;2023-02-15T05:06:02;60.73;;;36.20;;
21624;SDS011;10974;51.034;3.744;2023-02-15T05:08:28;55.87;;;35.57;;
21624;SDS011;10974;51.034;3.744;2023-02-15T05:10:55;69.03;;;37.63;;
21624;SDS011;10974;51.034;3.744;2023-02-15T05:13:21;73.17;;;40.07;;
21624;SDS011;10974;51.034;3.744;2023-02-15T05:15:48;74.30;;;40.73;;
21624;SDS011;10974;51.034;3.744;2023-02-15T05:18:14;83.17;;;41.37;;
21624;SDS011;10974;51.034;3.744;2023-02-15T05:20:40;77.87;;;42.73;;
21624;SDS011;10974;51.034;3.744;2023-02-15T05:23:06;79.97;;;41.73;;
21624;SDS011;10974;51.034;3.744;2023-02-15T05:25:32;82.27;;;43.70;;
21624;SDS011;10974;51.034;3.744;2023-02-15T05:28:17;73.00;;;42.27;;
21624;SDS011;10974;51.034;3.744;2023-02-15T05:30:49;71.10;;;39.17;;
21624;SDS011;10974;51.034;3.744;2023-02-15T05:33:16;76.17;;;41.57;;
21624;SDS011;10974;51.034;3.744;2023-02-15T05:35:42;62.90;;;38.33;;
21624;SDS011;10974;51.034;3.744;2023-02-15T05:38:08;61.13;;;36.83;;
21624;SDS011;10974;51.034;3.744;2023-02-15T05:40:34;62.10;;;37.57;;
21624;SDS011;10974;51.034;3.744;2023-02-15T05:43:01;59.70;;;36.97;;
21624;SDS011;10974;51.034;3.744;2023-02-15T05:45:26;59.40;;;36.80;;
21624;SDS011;10974;51.034;3.744;2023-02-15T05:47:53;61.07;;;37.07;;
21624;SDS011;10974;51.034;3.744;2023-02-15T05:50:20;61.10;;;36.27;;
21624;SDS011;10974;51.034;3.744;2023-02-15T05:52:46;60.70;;;36.40;;
21624;SDS011;10974;51.034;3.744;2023-02-15T05:55:12;58.47;;;35.50;;
21624;SDS011;10974;51.034;3.744;2023-02-15T05:57:38;55.80;;;35.57;;
21624;SDS011;10974;51.034;3.744;2023-02-15T06:00:04;58.20;;;35.53;;
21624;SDS011;10974;51.034;3.744;2023-02-15T06:02:36;55.70;;;35.30;;
21624;SDS011;10974;51.034;3.744;2023-02-15T06:05:03;57.83;;;34.93;;
21624;SDS011;10974;51.034;3.744;2023-02-15T06:07:30;55.23;;;35.67;;
21624;SDS011;10974;51.034;3.744;2023-02-15T06:09:56;57.97;;;35.87;;
21624;SDS011;10974;51.034;3.744;2023-02-15T06:12:22;57.23;;;35.27;;
21624;SDS011;10974;51.034;3.744;2023-02-15T06:14:48;53.67;;;33.77;;
21624;SDS011;10974;51.034;3.744;2023-02-15T06:17:14;54.57;;;34.53;;
21624;SDS011;10974;51.034;3.744;2023-02-15T06:19:41;55.37;;;33.77;;
21624;SDS011;10974;51.034;3.744;2023-02-15T06:22:07;50.97;;;34.03;;
21624;SDS011;10974;51.034;3.744;2023-02-15T06:24:33;54.83;;;34.10;;
21624;SDS011;10974;51.034;3.744;2023-02-15T06:26:59;54.83;;;33.90;;
21624;SDS011;10974;51.034;3.744;2023-02-15T06:29:26;59.23;;;37.00;;
21624;SDS011;10974;51.034;3.744;2023-02-15T06:31:52;72.67;;;42.90;;
21624;SDS011;10974;51.034;3.744;2023-02-15T06:34:18;70.53;;;41.07;;
21624;SDS011;10974;51.034;3.744;2023-02-15T06:36:44;62.43;;;38.67;;
21624;SDS011;10974;51.034;3.744;2023-02-15T06:39:10;56.57;;;35.90;;
21624;SDS011;10974;51.034;3.744;2023-02-15T06:41:36;112.90;;;37.47;;
21624;SDS011;10974;51.034;3.744;2023-02-15T06:44:02;55.40;;;35.23;;
21624;SDS011;10974;51.034;3.744;2023-02-15T06:46:28;61.87;;;36.93;;
21624;SDS011;10974;51.034;3.744;2023-02-15T06:48:54;53.23;;;34.93;;
21624;SDS011;10974;51.034;3.744;2023-02-15T06:51:20;52.93;;;34.60;;
21624;SDS011;10974;51.034;3.744;2023-02-15T06:53:46;56.67;;;35.47;;
21624;SDS011;10974;51.034;3.744;2023-02-15T06:56:12;55.77;;;35.00;;
21624;SDS011;10974;51.034;3.744;2023-02-15T06:58:38;54.80;;;34.33;;
21624;SDS011;10974;51.034;3.744;2023-02-15T07:01:05;53.37;;;33.57;;
21624;SDS011;10974;51.034;3.744;2023-02-15T07:03:31;54.93;;;32.00;;
21624;SDS011;10974;51.034;3.744;2023-02-15T07:05:58;52.03;;;31.73;;
21624;SDS011;10974;51.034;3.744;2023-02-15T07:08:25;51.20;;;33.00;;
21624;SDS011;10974;51.034;3.744;2023-02-15T07:10:52;51.60;;;31.43;;
21624;SDS011;10974;51.034;3.744;2023-02-15T07:13:19;52.47;;;30.87;;
21624;SDS011;10974;51.034;3.744;2023-02-15T07:15:47;50.90;;;30.97;;
21624;SDS011;10974;51.034;3.744;2023-02-15T07:18:13;50.20;;;30.97;;
21624;SDS011;10974;51.034;3.744;2023-02-15T07:20:39;56.07;;;33.60;;
21624;SDS011;10974;51.034;3.744;2023-02-15T07:23:07;49.07;;;32.03;;
21624;SDS011;10974;51.034;3.744;2023-02-15T07:25:33;54.33;;;31.00;;
21624;SDS011;10974;51.034;3.744;2023-02-15T07:28:00;46.97;;;29.70;;
21624;SDS011;10974;51.034;3.744;2023-02-15T07:30:26;45.73;;;29.77;;
21624;SDS011;10974;51.034;3.744;2023-02-15T07:32:59;55.97;;;30.30;;
21624;SDS011;10974;51.034;3.744;2023-02-15T07:35:51;52.43;;;31.77;;
21624;SDS011;10974;51.034;3.744;2023-02-15T07:38:18;51.50;;;32.67;;
21624;SDS011;10974;51.034;3.744;2023-02-15T07:40:44;53.13;;;32.30;;
21624;SDS011;10974;51.034;3.744;2023-02-15T07:43:10;53.20;;;32.87;;
21624;SDS011;10974;51.034;3.744;2023-02-15T07:45:37;49.40;;;31.23;;
21624;SDS011;10974;51.034;3.744;2023-02-15T07:48:03;49.33;;;31.50;;
21624;SDS011;10974;51.034;3.744;2023-02-15T07:50:29;55.73;;;31.50;;
21624;SDS011;10974;51.034;3.744;2023-02-15T07:52:55;49.30;;;31.23;;
21624;SDS011;10974;51.034;3.744;2023-02-15T07:55:21;46.10;;;30.00;;
21624;SDS011;10974;51.034;3.744;2023-02-15T07:57:49;49.80;;;31.10;;
21624;SDS011;10974;51.034;3.744;2023-02-15T08:00:16;49.03;;;29.83;;
21624;SDS011;10974;51.034;3.744;2023-02-15T08:02:47;46.07;;;29.27;;
21624;SDS011;10974;51.034;3.744;2023-02-15T08:05:13;52.40;;;30.87;;
21624;SDS011;10974;51.034;3.744;2023-02-15T08:07:41;51.27;;;31.17;;
21624;SDS011;10974;51.034;3.744;2023-02-15T08:10:07;55.93;;;31.37;;
21624;SDS011;10974;51.034;3.744;2023-02-15T08:12:34;53.70;;;29.80;;
21624;SDS011;10974;51.034;3.744;2023-02-15T08:15:00;51.30;;;30.10;;
21624;SDS011;10974;51.034;3.744;2023-02-15T08:17:26;50.00;;;30.13;;
21624;SDS011;10974;51.034;3.744;2023-02-15T08:19:52;49.43;;;29.97;;
21624;SDS011;10974;51.034;3.744;2023-02-15T08:22:18;41.03;;;28.00;;
21624;SDS011;10974;51.034;3.744;2023-02-15T08:24:44;52.37;;;30.43;;
21624;SDS011;10974;51.034;3.744;2023-02-15T08:27:10;50.13;;;30.57;;
21624;SDS011;10974;51.034;3.744;2023-02-15T08:29:37;49.73;;;29.17;;
21624;SDS011;10974;51.034;3.744;2023-02-15T08:32:07;46.40;;;30.30;;
21624;SDS011;10974;51.034;3.744;2023-02-15T08:34:35;51.90;;;30.70;;
21624;SDS011;10974;51.034;3.744;2023-02-15T08:37:01;50.37;;;30.00;;
21624;SDS011;10974;51.034;3.744;2023-02-15T08:39:27;51.07;;;30.80;;
21624;SDS011;10974;51.034;3.744;2023-02-15T08:41:53;49.93;;;31.23;;
21624;SDS011;10974;51.034;3.744;2023-02-15T08:44:20;45.30;;;28.90;;
21624;SDS011;10974;51.034;3.744;2023-02-15T08:46:47;50.83;;;28.93;;
21624;SDS011;10974;51.034;3.744;2023-02-15T08:49:16;44.00;;;28.90;;
21624;SDS011;10974;51.034;3.744;2023-02-15T08:51:42;47.93;;;28.10;;
21624;SDS011;10974;51.034;3.744;2023-02-15T08:54:10;48.33;;;28.53;;
21624;SDS011;10974;51.034;3.744;2023-02-15T08:56:38;48.90;;;29.77;;
21624;SDS011;10974;51.034;3.744;2023-02-15T08:59:05;48.67;;;29.30;;
21624;SDS011;10974;51.034;3.744;2023-02-15T09:01:32;40.30;;;26.67;;
21624;SDS011;10974;51.034;3.744;2023-02-15T09:03:59;43.50;;;26.50;;
21624;SDS011;10974;51.034;3.744;2023-02-15T09:06:26;44.27;;;27.60;;
21624;SDS011;10974;51.034;3.744;2023-02-15T09:08:53;43.27;;;27.17;;
21624;SDS011;10974;51.034;3.744;2023-02-15T09:11:20;43.73;;;26.70;;
21624;SDS011;10974;51.034;3.744;2023-02-15T09:13:54;45.50;;;28.27;;
21624;SDS011;10974;51.034;3.744;2023-02-15T09:16:21;47.50;;;26.00;;
21624;SDS011;10974;51.034;3.744;2023-02-15T09:18:47;45.27;;;27.23;;
21624;SDS011;10974;51.034;3.744;2023-02-15T09:21:14;45.23;;;26.80;;
21624;SDS011;10974;51.034;3.744;2023-02-15T09:23:42;50.23;;;28.23;;
21624;SDS011;10974;51.034;3.744;2023-02-15T09:26:09;48.13;;;27.50;;
21624;SDS011;10974;51.034;3.744;2023-02-15T09:28:35;48.30;;;27.97;;
21624;SDS011;10974;51.034;3.744;2023-02-15T09:31:11;44.20;;;26.57;;
21624;SDS011;10974;51.034;3.744;2023-02-15T09:33:39;44.03;;;24.97;;
21624;SDS011;10974;51.034;3.744;2023-02-15T09:36:06;45.63;;;26.00;;
21624;SDS011;10974;51.034;3.744;2023-02-15T09:38:32;47.27;;;26.47;;
21624;SDS011;10974;51.034;3.744;2023-02-15T09:43:55;39.23;;;25.13;;
21624;SDS011;10974;51.034;3.744;2023-02-15T09:49:11;52.27;;;29.03;;
21624;SDS011;10974;51.034;3.744;2023-02-15T09:57:06;43.73;;;25.70;;
21624;SDS011;10974;51.034;3.744;2023-02-15T09:59:35;41.37;;;24.63;;
21624;SDS011;10974;51.034;3.744;2023-02-15T10:04:40;39.23;;;25.03;;
21624;SDS011;10974;51.034;3.744;2023-02-15T10:10:02;43.20;;;26.23;;
21624;SDS011;10974;51.034;3.744;2023-02-15T10:20:00;41.47;;;25.00;;
21624;SDS011;10974;51.034;3.744;2023-02-15T10:27:29;36.10;;;22.13;;
21624;SDS011;10974;51.034;3.744;2023-02-15T10:32:27;42.40;;;25.00;;
21624;SDS011;10974;51.034;3.744;2023-02-15T10:37:24;42.13;;;24.47;;
21624;SDS011;10974;51.034;3.744;2023-02-15T10:40:15;41.10;;;24.37;;
21624;SDS011;10974;51.034;3.744;2023-02-15T10:58:38;39.30;;;24.50;;
21624;SDS011;10974;51.034;3.744;2023-02-15T11:06:09;50.03;;;25.50;;
21624;SDS011;10974;51.034;3.744;2023-02-15T11:08:52;46.10;;;25.50;;
21624;SDS011;10974;51.034;3.744;2023-02-15T11:11:23;43.03;;;26.10;;
21624;SDS011;10974;51.034;3.744;2023-02-15T11:13:52;45.20;;;26.57;;
21624;SDS011;10974;51.034;3.744;2023-02-15T11:16:25;44.87;;;26.03;;
21624;SDS011;10974;51.034;3.744;2023-02-15T11:18:59;47.23;;;27.33;;
21624;SDS011;10974;51.034;3.744;2023-02-15T11:21:30;41.70;;;26.43;;
21624;SDS011;10974;51.034;3.744;2023-02-15T11:23:57;46.17;;;26.03;;
21624;SDS011;10974;51.034;3.744;2023-02-15T11:26:30;43.37;;;25.77;;
21624;SDS011;10974;51.034;3.744;2023-02-15T11:28:59;38.00;;;23.73;;
21624;SDS011;10974;51.034;3.744;2023-02-15T11:31:30;38.43;;;24.10;;
21624;SDS011;10974;51.034;3.744;2023-02-15T11:34:02;43.30;;;26.00;;
21624;SDS011;10974;51.034;3.744;2023-02-15T11:36:33;44.93;;;26.50;;
21624;SDS011;10974;51.034;3.744;2023-02-15T11:39:10;41.93;;;26.00;;
21624;SDS011;10974;51.034;3.744;2023-02-15T11:41:39;39.00;;;23.90;;
21624;SDS011;10974;51.034;3.744;2023-02-15T11:44:22;44.80;;;26.60;;
21624;SDS011;10974;51.034;3.744;2023-02-15T11:46:49;42.63;;;26.40;;
21624;SDS011;10974;51.034;3.744;2023-02-15T11:51:54;46.70;;;27.60;;
21624;SDS011;10974;51.034;3.744;2023-02-15T11:54:22;43.80;;;26.90;;
21624;SDS011;10974;51.034;3.744;2023-02-15T11:56:49;43.17;;;27.60;;
21624;SDS011;10974;51.034;3.744;2023-02-15T11:59:21;44.30;;;26.70;;
21624;SDS011;10974;51.034;3.744;2023-02-15T12:01:50;40.50;;;25.23;;
21624;SDS011;10974;51.034;3.744;2023-02-15T12:07:04;45.60;;;29.20;;
21624;SDS011;10974;51.034;3.744;2023-02-15T12:09:49;42.00;;;26.70;;
21624;SDS011;10974;51.034;3.744;2023-02-15T12:12:30;49.20;;;26.43;;
21624;SDS011;10974;51.034;3.744;2023-02-15T12:15:03;48.43;;;27.40;;
21624;SDS011;10974;51.034;3.744;2023-02-15T12:17:31;43.47;;;27.60;;
21624;SDS011;10974;51.034;3.744;2023-02-15T12:20:02;42.90;;;26.77;;
21624;SDS011;10974;51.034;3.744;2023-02-15T12:22:29;45.17;;;25.07;;
21624;SDS011;10974;51.034;3.744;2023-02-15T12:24:57;39.40;;;24.93;;
21624;SDS011;10974;51.034;3.744;2023-02-15T12:27:25;44.50;;;25.30;;
21624;SDS011;10974;51.034;3.744;2023-02-15T12:29:53;44.60;;;27.13;;
21624;SDS011;10974;51.034;3.744;2023-02-15T12:32:28;39.87;;;25.03;;
21624;SDS011;10974;51.034;3.744;2023-02-15T12:34:59;44.17;;;26.10;;
21624;SDS011;10974;51.034;3.744;2023-02-15T12:37:26;42.57;;;25.53;;
21624;SDS011;10974;51.034;3.744;2023-02-15T12:39:57;48.43;;;26.17;;
21624;SDS011;10974;51.034;3.744;2023-02-15T12:42:23;44.87;;;26.90;;
21624;SDS011;10974;51.034;3.744;2023-02-15T12:44:53;42.80;;;26.83;;
21624;SDS011;10974;51.034;3.744;2023-02-15T12:47:19;43.10;;;26.73;;
21624;SDS011;10974;51.034;3.744;2023-02-15T12:50:08;40.33;;;25.53;;
21624;SDS011;10974;51.034;3.744;2023-02-15T12:52:41;43.33;;;25.57;;
21624;SDS011;10974;51.034;3.744;2023-02-15T12:55:11;46.43;;;26.80;;
21624;SDS011;10974;51.034;3.744;2023-02-15T12:57:43;51.77;;;27.80;;
21624;SDS011;10974;51.034;3.744;2023-02-15T13:02:42;46.63;;;27.50;;
21624;SDS011;10974;51.034;3.744;2023-02-15T13:07:49;47.83;;;27.63;;
21624;SDS011;10974;51.034;3.744;2023-02-15T13:10:21;45.63;;;27.53;;
21624;SDS011;10974;51.034;3.744;2023-02-15T13:12:49;46.10;;;27.90;;
21624;SDS011;10974;51.034;3.744;2023-02-15T13:15:52;45.80;;;28.53;;
21624;SDS011;10974;51.034;3.744;2023-02-15T13:18:15;49.57;;;28.70;;
21624;SDS011;10974;51.034;3.744;2023-02-15T13:20:42;43.50;;;28.00;;
21624;SDS011;10974;51.034;3.744;2023-02-15T13:23:28;43.20;;;28.23;;
21624;SDS011;10974;51.034;3.744;2023-02-15T13:25:55;48.23;;;27.43;;
21624;SDS011;10974;51.034;3.744;2023-02-15T13:28:25;44.80;;;28.47;;
21624;SDS011;10974;51.034;3.744;2023-02-15T13:30:52;48.57;;;28.07;;
21624;SDS011;10974;51.034;3.744;2023-02-15T13:33:27;45.53;;;28.10;;
21624;SDS011;10974;51.034;3.744;2023-02-15T13:36:09;45.80;;;28.57;;
21624;SDS011;10974;51.034;3.744;2023-02-15T13:41:15;44.27;;;27.23;;
21624;SDS011;10974;51.034;3.744;2023-02-15T13:59:40;43.90;;;27.30;;
21624;SDS011;10974;51.034;3.744;2023-02-15T14:04:43;43.90;;;26.10;;
21624;SDS011;10974;51.034;3.744;2023-02-15T14:07:26;48.70;;;27.50;;
21624;SDS011;10974;51.034;3.744;2023-02-15T14:10:08;44.73;;;28.60;;
21624;SDS011;10974;51.034;3.744;2023-02-15T14:23:17;42.77;;;28.47;;
21624;SDS011;10974;51.034;3.744;2023-02-15T14:25:50;43.33;;;26.57;;
21624;SDS011;10974;51.034;3.744;2023-02-15T14:28:25;45.60;;;28.60;;
21624;SDS011;10974;51.034;3.744;2023-02-15T14:30:55;41.00;;;25.30;;
21624;SDS011;10974;51.034;3.744;2023-02-15T14:33:36;46.10;;;26.70;;
21624;SDS011;10974;51.034;3.744;2023-02-15T14:36:04;45.53;;;27.77;;
21624;SDS011;10974;51.034;3.744;2023-02-15T14:38:45;41.70;;;25.07;;
21624;SDS011;10974;51.034;3.744;2023-02-15T14:41:17;42.63;;;25.90;;
21624;SDS011;10974;51.034;3.744;2023-02-15T14:48:53;40.63;;;24.07;;
21624;SDS011;10974;51.034;3.744;2023-02-15T14:54:08;40.57;;;25.90;;
21624;SDS011;10974;51.034;3.744;2023-02-15T14:56:34;40.60;;;25.30;;
21624;SDS011;10974;51.034;3.744;2023-02-15T14:59:11;42.90;;;26.83;;
21624;SDS011;10974;51.034;3.744;2023-02-15T15:01:38;41.77;;;24.37;;
21624;SDS011;10974;51.034;3.744;2023-02-15T15:06:33;44.33;;;26.20;;
21624;SDS011;10974;51.034;3.744;2023-02-15T15:09:22;41.50;;;26.03;;
21624;SDS011;10974;51.034;3.744;2023-02-15T15:11:50;43.93;;;26.90;;
21624;SDS011;10974;51.034;3.744;2023-02-15T15:17:02;49.33;;;26.90;;
21624;SDS011;10974;51.034;3.744;2023-02-15T15:25:09;44.37;;;27.33;;
21624;SDS011;10974;51.034;3.744;2023-02-15T15:30:02;45.60;;;27.50;;
21624;SDS011;10974;51.034;3.744;2023-02-15T15:32:29;42.27;;;26.13;;
21624;SDS011;10974;51.034;3.744;2023-02-15T15:37:38;44.70;;;25.73;;
21624;SDS011;10974;51.034;3.744;2023-02-15T15:42:48;39.83;;;25.60;;
21624;SDS011;10974;51.034;3.744;2023-02-15T15:45:34;40.30;;;25.60;;
21624;SDS011;10974;51.034;3.744;2023-02-15T15:50:28;50.07;;;28.80;;
21624;SDS011;10974;51.034;3.744;2023-02-15T15:52:55;39.20;;;24.90;;
21624;SDS011;10974;51.034;3.744;2023-02-15T15:55:23;40.60;;;25.80;;
21624;SDS011;10974;51.034;3.744;2023-02-15T15:57:51;48.33;;;25.93;;
21624;SDS011;10974;51.034;3.744;2023-02-15T16:02:51;42.50;;;25.57;;
21624;SDS011;10974;51.034;3.744;2023-02-15T16:05:17;44.00;;;25.83;;
21624;SDS011;10974;51.034;3.744;2023-02-15T16:07:43;37.50;;;25.27;;
21624;SDS011;10974;51.034;3.744;2023-02-15T16:10:25;42.87;;;25.97;;
21624;SDS011;10974;51.034;3.744;2023-02-15T16:12:52;40.30;;;27.17;;
21624;SDS011;10974;51.034;3.744;2023-02-15T16:15:23;39.80;;;27.40;;
21624;SDS011;10974;51.034;3.744;2023-02-15T16:17:51;40.27;;;28.93;;
21624;SDS011;10974;51.034;3.744;2023-02-15T16:22:53;42.27;;;27.57;;
21624;SDS011;10974;51.034;3.744;2023-02-15T16:25:45;38.30;;;28.17;;
21624;SDS011;10974;51.034;3.744;2023-02-15T16:28:07;39.70;;;27.60;;
21624;SDS011;10974;51.034;3.744;2023-02-15T16:30:35;47.43;;;29.47;;
21624;SDS011;10974;51.034;3.744;2023-02-15T16:33:05;40.80;;;26.93;;
21624;SDS011;10974;51.034;3.744;2023-02-15T16:35:32;42.27;;;27.97;;
21624;SDS011;10974;51.034;3.744;2023-02-15T16:37:58;34.77;;;31.37;;
21624;SDS011;10974;51.034;3.744;2023-02-15T16:42:51;35.93;;;32.43;;
21624;SDS011;10974;51.034;3.744;2023-02-15T16:45:18;34.93;;;31.50;;
21624;SDS011;10974;51.034;3.744;2023-02-15T16:47:46;36.30;;;32.60;;
21624;SDS011;10974;51.034;3.744;2023-02-15T16:50:34;37.07;;;33.30;;
21624;SDS011;10974;51.034;3.744;2023-02-15T16:53:01;35.93;;;32.50;;
21624;SDS011;10974;51.034;3.744;2023-02-15T16:55:30;36.53;;;32.93;;
21624;SDS011;10974;51.034;3.744;2023-02-15T16:58:01;38.07;;;20.23;;
21624;SDS011;10974;51.034;3.744;2023-02-15T17:00:30;33.30;;;18.17;;
21624;SDS011;10974;51.034;3.744;2023-02-15T17:03:00;36.33;;;17.90;;
21624;SDS011;10974;51.034;3.744;2023-02-15T17:05:33;32.90;;;18.60;;
21624;SDS011;10974;51.034;3.744;2023-02-15T17:08:18;32.50;;;26.97;;
21624;SDS011;10974;51.034;3.744;2023-02-15T17:13:29;35.60;;;31.97;;
21624;SDS011;10974;51.034;3.744;2023-02-15T17:18:25;35.97;;;32.33;;
21624;SDS011;10974;51.034;3.744;2023-02-15T17:20:53;36.40;;;32.60;;
21624;SDS011;10974;51.034;3.744;2023-02-15T17:28:45;34.70;;;31.40;;
21624;SDS011;10974;51.034;3.744;2023-02-15T17:31:12;36.30;;;32.70;;
21624;SDS011;10974;51.034;3.744;2023-02-15T17:33:39;45.73;;;29.00;;
21624;SDS011;10974;51.034;3.744;2023-02-15T17:38:35;44.40;;;30.23;;
21624;SDS011;10974;51.034;3.744;2023-02-15T17:41:01;43.10;;;28.90;;
21624;SDS011;10974;51.034;3.744;2023-02-15T17:43:27;39.00;;;28.50;;
21624;SDS011;10974;51.034;3.744;2023-02-15T17:45:53;38.33;;;27.80;;
21624;SDS011;10974;51.034;3.744;2023-02-15T17:48:41;38.10;;;27.27;;
21624;SDS011;10974;51.034;3.744;2023-02-15T17:51:09;44.70;;;29.17;;
21624;SDS011;10974;51.034;3.744;2023-02-15T17:53:36;43.80;;;27.83;;
21624;SDS011;10974;51.034;3.744;2023-02-15T17:56:02;39.80;;;27.40;;
21624;SDS011;10974;51.034;3.744;2023-02-15T17:58:34;45.27;;;28.33;;
21624;SDS011;10974;51.034;3.744;2023-02-15T18:01:01;43.83;;;28.40;;
21624;SDS011;10974;51.034;3.744;2023-02-15T18:03:48;41.33;;;29.53;;
21624;SDS011;10974;51.034;3.744;2023-02-15T18:06:34;41.53;;;28.40;;
21624;SDS011;10974;51.034;3.744;2023-02-15T18:09:19;42.60;;;29.07;;
21624;SDS011;10974;51.034;3.744;2023-02-15T18:12:17;44.70;;;30.13;;
21624;SDS011;10974;51.034;3.744;2023-02-15T18:14:44;43.83;;;30.73;;
21624;SDS011;10974;51.034;3.744;2023-02-15T18:17:10;48.73;;;31.23;;
21624;SDS011;10974;51.034;3.744;2023-02-15T18:19:37;49.57;;;32.87;;
21624;SDS011;10974;51.034;3.744;2023-02-15T18:22:16;43.03;;;29.50;;
21624;SDS011;10974;51.034;3.744;2023-02-15T18:24:43;44.10;;;31.83;;
21624;SDS011;10974;51.034;3.744;2023-02-15T18:27:10;47.77;;;31.37;;
21624;SDS011;10974;51.034;3.744;2023-02-15T18:29:36;42.93;;;29.87;;
21624;SDS011;10974;51.034;3.744;2023-02-15T18:32:02;41.53;;;30.13;;
21624;SDS011;10974;51.034;3.744;2023-02-15T18:34:30;44.53;;;31.10;;
21624;SDS011;10974;51.034;3.744;2023-02-15T18:36:57;48.20;;;32.63;;
21624;SDS011;10974;51.034;3.744;2023-02-15T18:41:52;47.73;;;32.53;;
21624;SDS011;10974;51.034;3.744;2023-02-15T18:44:19;44.23;;;31.20;;
21624;SDS011;10974;51.034;3.744;2023-02-15T18:46:45;44.03;;;31.00;;
21624;SDS011;10974;51.034;3.744;2023-02-15T18:49:11;47.60;;;32.03;;
21624;SDS011;10974;51.034;3.744;2023-02-15T18:51:37;47.20;;;32.33;;
21624;SDS011;10974;51.034;3.744;2023-02-15T18:54:04;43.47;;;31.93;;
21624;SDS011;10974;51.034;3.744;2023-02-15T18:56:31;46.30;;;32.03;;
21624;SDS011;10974;51.034;3.744;2023-02-15T18:58:57;49.73;;;32.97;;
21624;SDS011;10974;51.034;3.744;2023-02-15T19:01:23;44.27;;;32.50;;
21624;SDS011;10974;51.034;3.744;2023-02-15T19:03:50;45.83;;;32.70;;
21624;SDS011;10974;51.034;3.744;2023-02-15T19:06:20;43.90;;;33.90;;
21624;SDS011;10974;51.034;3.744;2023-02-15T19:08:48;49.40;;;33.70;;
21624;SDS011;10974;51.034;3.744;2023-02-15T19:11:16;50.63;;;33.50;;
21624;SDS011;10974;51.034;3.744;2023-02-15T19:13:43;47.03;;;31.80;;
21624;SDS011;10974;51.034;3.744;2023-02-15T19:16:13;46.60;;;33.50;;
21624;SDS011;10974;51.034;3.744;2023-02-15T19:18:45;47.97;;;33.50;;
21624;SDS011;10974;51.034;3.744;2023-02-15T19:21:14;50.37;;;32.90;;
21624;SDS011;10974;51.034;3.744;2023-02-15T19:23:42;46.40;;;34.07;;
21624;SDS011;10974;51.034;3.744;2023-02-15T19:26:09;47.23;;;33.37;;
21624;SDS011;10974;51.034;3.744;2023-02-15T19:28:35;44.90;;;31.77;;
21624;SDS011;10974;51.034;3.744;2023-02-15T19:31:01;49.50;;;34.17;;
21624;SDS011;10974;51.034;3.744;2023-02-15T19:33:27;46.97;;;33.37;;
21624;SDS011;10974;51.034;3.744;2023-02-15T19:35:53;46.97;;;34.30;;
21624;SDS011;10974;51.034;3.744;2023-02-15T19:38:24;45.30;;;32.60;;
21624;SDS011;10974;51.034;3.744;2023-02-15T19:40:51;49.43;;;34.83;;
21624;SDS011;10974;51.034;3.744;2023-02-15T19:43:20;46.40;;;31.77;;
21624;SDS011;10974;51.034;3.744;2023-02-15T19:45:51;45.90;;;34.20;;
21624;SDS011;10974;51.034;3.744;2023-02-15T19:48:18;45.10;;;32.50;;
21624;SDS011;10974;51.034;3.744;2023-02-15T19:50:44;47.63;;;34.60;;
21624;SDS011;10974;51.034;3.744;2023-02-15T19:53:21;47.87;;;33.63;;
21624;SDS011;10974;51.034;3.744;2023-02-15T19:55:47;44.87;;;32.87;;
21624;SDS011;10974;51.034;3.744;2023-02-15T19:58:14;49.10;;;34.57;;
21624;SDS011;10974;51.034;3.744;2023-02-15T20:00:43;47.10;;;33.23;;
21624;SDS011;10974;51.034;3.744;2023-02-15T20:03:10;48.73;;;33.57;;
21624;SDS011;10974;51.034;3.744;2023-02-15T20:05:36;51.53;;;34.57;;
21624;SDS011;10974;51.034;3.744;2023-02-15T20:08:03;46.77;;;34.30;;
21624;SDS011;10974;51.034;3.744;2023-02-15T20:10:32;45.70;;;31.83;;
21624;SDS011;10974;51.034;3.744;2023-02-15T20:12:59;50.87;;;33.23;;
21624;SDS011;10974;51.034;3.744;2023-02-15T20:17:54;42.33;;;32.53;;
21624;SDS011;10974;51.034;3.744;2023-02-15T20:20:23;51.80;;;34.60;;
21624;SDS011;10974;51.034;3.744;2023-02-15T20:22:51;51.80;;;34.90;;
21624;SDS011;10974;51.034;3.744;2023-02-15T20:25:19;46.50;;;34.57;;
21624;SDS011;10974;51.034;3.744;2023-02-15T20:27:45;46.60;;;32.83;;
21624;SDS011;10974;51.034;3.744;2023-02-15T20:30:15;58.70;;;36.13;;
21624;SDS011;10974;51.034;3.744;2023-02-15T20:32:42;47.10;;;32.80;;
21624;SDS011;10974;51.034;3.744;2023-02-15T20:35:11;45.13;;;32.50;;
21624;SDS011;10974;51.034;3.744;2023-02-15T20:37:37;49.77;;;35.87;;
21624;SDS011;10974;51.034;3.744;2023-02-15T20:40:11;46.53;;;33.50;;
21624;SDS011;10974;51.034;3.744;2023-02-15T20:42:37;50.30;;;34.30;;
21624;SDS011;10974;51.034;3.744;2023-02-15T20:45:12;52.40;;;34.50;;
21624;SDS011;10974;51.034;3.744;2023-02-15T20:47:39;56.63;;;35.27;;
21624;SDS011;10974;51.034;3.744;2023-02-15T20:50:07;53.10;;;36.53;;
21624;SDS011;10974;51.034;3.744;2023-02-15T20:52:34;48.90;;;35.20;;
21624;SDS011;10974;51.034;3.744;2023-02-15T20:55:00;50.70;;;35.20;;
21624;SDS011;10974;51.034;3.744;2023-02-15T20:57:26;50.80;;;35.23;;
21624;SDS011;10974;51.034;3.744;2023-02-15T20:59:52;47.00;;;34.03;;
21624;SDS011;10974;51.034;3.744;2023-02-15T21:02:21;56.90;;;37.20;;
21624;SDS011;10974;51.034;3.744;2023-02-15T21:04:47;45.50;;;34.50;;
21624;SDS011;10974;51.034;3.744;2023-02-15T21:07:17;58.50;;;36.77;;
21624;SDS011;10974;51.034;3.744;2023-02-15T21:09:44;48.20;;;35.77;;
21624;SDS011;10974;51.034;3.744;2023-02-15T21:12:14;52.30;;;33.93;;
21624;SDS011;10974;51.034;3.744;2023-02-15T21:14:40;49.80;;;34.70;;
21624;SDS011;10974;51.034;3.744;2023-02-15T21:17:09;47.97;;;34.90;;
21624;SDS011;10974;51.034;3.744;2023-02-15T21:19:35;44.80;;;34.03;;
21624;SDS011;10974;51.034;3.744;2023-02-15T21:22:02;50.13;;;31.90;;